x

Columbia River Bar - 20nm West Of Columbia River Mouth (46029) Wave Buoy

11:50 - Sun 31st Aug 2014 All times are PDT. -7 hours from GMT.

  • Sig Wave height 4.6ft
  • Swell Direction
  • Peak Period 9s
  • Average Period 8s
  • Wind
    7mph, 9mph gusts
  • Sea Temp 65°f
  • Aire Temp 64°f
  • Sea Pressure 1018.2mb
  • Columbia River Bar - 20nm West Of Columbia River Mouth
  • Columbia River Bar - 20nm West Of Columbia River Mouth

More Historic Weather Station data

Upgrade to MSW Pro to gain access to the past 30 days of data for over 8000 Wavebouys and Weather Stations around the globe.

Join Pro

Comparision Forecast

View Surf forecast
   
dom 08/31 11:50 4.5ft 9s 8s 7 9 mph 1018.2mb 65f 64f
10:50 4.5ft 10s 7s 7
mph
1018.1mb 65f 65f
9:50 4.5ft 10s 7s 7
mph
1017.9mb 65f 65f
8:50 5ft 10s 7s 7
mph
1017.9mb 65f 65f
7:50 6ft 10s 7s 9 11 mph 1017.6mb 65f 65f
6:50 5ft 10s 7s 11 13 mph 1017.6mb 65f 65f
5:50 5.5ft 10s 7s 11 13 mph 1017.7mb 65f 64f
4:50 5ft 10s 7s 11 13 mph 1017.8mb 65f 64f
3:50 5.5ft 10s 7s 11 13 mph 1018.2mb 65f 63f
2:50 5ft 10s 7s 13 16 mph 1018.2mb 65f 62f
1:50 6ft 9s 7s 13 16 mph 1018.6mb 65f 61f
12:50 5.5ft 10s 7s 13 16 mph 1018.6mb 65f 60f
11:50 6ft 11s 7s 13 16 mph 1018.5mb 65f 60f
10:50 6ft 10s 8s 11 16 mph 1018.2mb 65f 61f
9:50 6ft 10s 8s 9 11 mph 1017.9mb 65f 61f
8:50 5.5ft 11s 8s 9
mph
1017.7mb 65f 62f
7:50 6ft 11s 8s 7
mph
1017.4mb 65f 63f
6:50 5.5ft 9s 8s 7
mph
1017mb 65f 62f
5:50 6ft 11s 8s 7 9 mph 1016.9mb 65f 62f
4:50 5.5ft 11s 8s 7 9 mph 1016.6mb 64f 62f
3:50 5ft 11s 7s 7 9 mph 1016.5mb 64f 62f
2:50 5.5ft 10s 7s 7 9 mph 1016.5mb 64f 62f
1:50 6ft 11s 8s 2 9 mph 1016.5mb 64f 63f
12:50 6ft 11s 8s 2 4 mph 1016.3mb 63f 64f
sáb 08/30 11:50 6.5ft 11s 8s 2 4 mph 1016.3mb 63f 64f
10:50 7ft 10s 7s 4 7 mph 1016.1mb 63f 64f
9:50 6ft 11s 7s 7 9 mph 1016mb 63f 64f
8:50 7.5ft 10s 8s 7 9 mph 1015.6mb 63f 64f
7:50 6.5ft 12s 7s 7 9 mph 1015.4mb 63f 65f
6:50 6ft 11s 7s 9 11 mph 1015mb 64f 65f
5:50 5ft 11s 7s 9 11 mph 1015mb 65f 65f
4:50 4.5ft 9s 6s 11
mph
1015mb 65f 65f
3:50 4.5ft 11s 7s 9 11 mph 1014.7mb 65f 65f
2:50 4.5ft 9s 6s 11 13 mph 1014.5mb 64f 64f
1:50 3.5ft 9s 5s 11
mph
1014.4mb 63f 64f
12:50 4ft 12s 5s 11 13 mph 1013.8mb 63f 63f
11:50 3.5ft 9s 4s 13 16 mph 1013.2mb 62f 62f
10:50 4ft 13s 4s 18 22 mph 1012.6mb 59f 63f
9:50 4.5ft 5s 4s 18 22 mph 1011.6mb 59f 62f
8:50 4.5ft 5s 5s 18 25 mph 1010.2mb 59f 63f
7:50 4ft 8s 5s 20 25 mph 1010.8mb 60f 61f
6:50 4ft 9s 5s 18 22 mph 1011.3mb 60f 61f
5:50 4ft 4s 5s 20 22 mph 1011.2mb 60f 61f
4:50 4ft 13s 5s 18 22 mph 1012mb 60f 61f
3:50 4ft 9s 5s 20 22 mph 1012.3mb 60f 61f
2:50 4ft 13s 6s 18 20 mph 1012.9mb 60f 60f
1:50 3.5ft 14s 6s 16 20 mph 1013.5mb 61f 61f
12:50 3.5ft 14s 7s 13
mph
1014mb 61f 61f
vie 08/29 11:50 3ft 9s 7s 7 9 mph 1014.5mb 62f 62f
10:50 3.5ft 10s 7s 7
mph
1014.7mb 61f 63f
9:50 3.5ft 10s 7s 7
mph
1015.2mb 62f 63f
8:50 3.5ft 9s 7s 9
mph
1015.1mb 62f 62f
7:50 3.5ft 10s 7s 7 9 mph 1015mb 64f 63f
6:50 3.5ft 9s 7s 9
mph
1015.1mb 65f 63f
5:50 3.5ft 9s 7s 9
mph
1015.5mb 65f 63f
4:50 3.5ft 10s 7s 9
mph
1015.4mb 65f 63f
3:50 3.5ft 10s 6s 11
mph
1015.8mb 64f 63f
2:50 3.5ft 9s 6s 9
mph
1016.1mb 64f 62f
1:50 3.5ft 10s 6s 11
mph
1016.2mb 63f 62f
12:50 3.5ft 9s 6s 13 16 mph 1016.2mb 61f 61f
11:50 3.5ft 9s 6s 13 16 mph 1016.2mb 61f 61f
10:50 3.5ft 10s 6s 13 18 mph 1016mb 60f 61f
9:50 3.5ft 14s 7s 11 13 mph 1016mb 61f 60f
8:50 3.5ft 10s 8s 9 11 mph 1016mb 60f 60f
7:50 3.5ft 9s 8s 9 11 mph 1015.7mb 60f 59f
6:50 3.5ft 11s 8s 9 11 mph 1015.5mb 60f 58f
5:50 3.5ft 11s 7s 7
mph
1015.5mb 60f 58f
4:50 3.5ft 11s 8s 2
mph
1016.1mb 60f 58f
3:50 3ft 10s 8s 2 4 mph 1016.1mb 60f 58f
2:50 3ft 11s 8s  -  2 mph 1016.3mb 59f 59f
1:50 3.5ft 11s 8s  -  2 mph 1016.7mb 59f 59f
12:50 3.5ft 10s 8s 2 4 mph 1017mb 60f 60f
jue 08/28 11:50 3.5ft 9s 8s 2 4 mph 1017.4mb 60f 60f
10:50 3.5ft 10s 8s 7 9 mph 1017.7mb 60f 62f
9:50 3.5ft 11s 8s 7 9 mph 1018.3mb 61f 62f
8:50 3.5ft 10s 8s 4 7 mph 1018.4mb 61f 63f
7:50 3.5ft 10s 8s 7 9 mph 1018.3mb 62f 63f
6:50 3.5ft 10s 8s 4 7 mph 1018.5mb 62f 62f
5:50 3ft 10s 7s 4 7 mph 1018.8mb 62f 62f
4:50 2.5ft 10s 7s 11
mph
1019.1mb 62f 62f
3:50 3ft 11s 7s 7
mph
1019.5mb 62f 61f
2:50 2.5ft 16s 6s 7 9 mph 1019.8mb 61f 61f
1:50 2.5ft 11s 7s 7 9 mph 1020.1mb 61f 61f
12:50 3ft 11s 7s 9
mph
1020.2mb 61f 60f
11:50 2.5ft 16s 6s 7 9 mph 1020.7mb 60f 60f
10:50 2.5ft 11s 6s 9 11 mph 1020.4mb 59f 59f
9:50 2.5ft 11s 6s 7 9 mph 1020.2mb 58f 59f
8:50 3ft 16s 6s 7 9 mph 1020.1mb 58f 60f